Latest Weather Observations for Forbes

IDN60801

Issued at 6:03 pm EST Tuesday 30 June 2015 (issued every 30 minutes, with the page automatically refreshed every 10 minutes)

About weather observations | Map of weather stations | Latest weather observations for NSW | Other Formats
Station Details ID: 065103 Name: FORBES AIRPORT AWS Lat: -33.36 Lon: 147.92 Height: 230.4 m
Data from the previous 72 hours. | See also: Recent months at Forbes
Date/Time
EST
Temp
°C
App
Temp
°C
Dew
Point
Rel
Hum
%
Delta-T
°C
Wind Press
QNH
hPa
Press
MSL
hPa
Rain
since 9 am
mm
Dir
 
Spd
km/h
Gust
km/h
Spd
kts
Gust
kts
30/06:00pm 8.0 5.7 5.6 85 1.1 S 7 9 4 5 1027.9 1028.2 0.2
30/05:30pm 8.4 5.6 5.2 80 1.4 SSE 9 11 5 6 1027.6 1027.9 0.2
30/05:00pm 8.8 5.7 5.4 79 1.5 S 11 15 6 8 1027.6 1027.9 0.2
30/04:30pm 9.1 5.6 5.5 78 1.7 S 13 17 7 9 1027.3 1027.6 0.2
30/04:00pm 9.5 5.6 5.5 76 1.8 S 15 19 8 10 1027.2 1027.5 0.2
30/03:30pm 9.8 6.2 5.2 73 2.1 S 13 19 7 10 1027.1 1027.4 0.2
30/03:00pm 9.9 6.3 5.1 72 2.2 S 13 17 7 9 1027.1 1027.4 0.2
30/02:30pm 10.2 6.6 5.2 71 2.3 S 13 17 7 9 1027.0 1027.3 0.2
30/02:00pm 10.4 7.0 6.0 74 2.0 SSW 13 17 7 9 1027.4 1027.7 0.2
30/01:30pm 10.5 7.1 5.9 73 2.2 S 13 17 7 9 1027.4 1027.7 0.2
30/01:00pm 11.2 7.5 6.5 73 2.2 SSW 15 19 8 10 1028.0 1028.3 0.2
30/12:30pm 10.6 7.4 6.9 78 1.8 SSW 13 17 7 9 1028.4 1028.7 0.2
30/12:00pm 10.6 8.5 6.7 77 1.8 S 7 13 4 7 1028.7 1029.0 0.2
30/11:30am 10.3 7.9 7.0 80 1.6 S 9 13 5 7 1028.8 1029.1 0.2
30/11:00am 9.7 7.3 7.1 84 1.2 S 9 13 5 7 1029.4 1029.7 0.2
30/10:30am 8.5 5.5 7.6 94 0.4 SSW 13 17 7 9 1029.7 1030.0 0.2
30/10:00am 7.5 4.8 7.4 99 0.0 SSW 11 15 6 8 1030.0 1030.3 0.2
30/09:30am 6.3 4.7 6.2 99 0.0 SSE 4 9 2 5 1029.9 1030.2 0.0
30/09:00am 5.2 4.1 5.1 99 0.0 CALM 0 0 0 0 1029.8 1030.1 0.0
30/08:30am 4.4 3.1 4.3 99 0.0 CALM 0 0 0 0 1029.6 1029.9 0.0
30/08:00am 4.0 2.7 3.9 99 0.0 CALM 0 6 0 3 1029.5 1029.8 0.0
30/07:30am 3.8 2.4 3.7 99 0.0 CALM 0 0 0 0 1029.2 1029.5 0.0
30/07:00am 3.7 2.3 3.6 99 0.0 CALM 0 0 0 0 1029.0 1029.3 0.0
30/06:30am 3.7 2.3 3.6 99 0.0 CALM 0 0 0 0 1028.7 1029.0 0.0
30/06:00am 3.5 2.1 3.4 99 0.0 CALM 0 0 0 0 1028.6 1028.9 0.0
30/05:30am 3.6 2.2 3.5 99 0.0 CALM 0 0 0 0 1028.6 1028.9 0.0
30/05:00am 3.4 2.0 3.3 99 0.0 CALM 0 0 0 0 1028.4 1028.7 0.0
30/04:30am 3.4 2.0 3.3 99 0.0 CALM 0 0 0 0 1028.5 1028.8 0.0
30/04:00am 3.1 1.6 3.0 99 0.0 CALM 0 0 0 0 1028.5 1028.8 0.0
30/03:30am 2.8 1.2 2.7 99 0.0 CALM 0 0 0 0 1028.7 1029.0 0.0
30/03:00am 2.2 0.5 2.1 99 0.0 CALM 0 0 0 0 1029.0 1029.3 0.0
30/02:30am 1.5 -0.6 1.4 99 0.0 SE 2 9 1 5 1028.8 1029.1 0.0
30/02:00am 0.5 -1.4 0.4 99 0.0 CALM 0 0 0 0 1028.7 1029.0 0.0
30/01:30am 0.6 -1.3 0.5 99 0.0 CALM 0 0 0 0 1028.6 1028.9 0.0
30/01:00am 1.2 -0.6 1.1 99 0.0 CALM 0 0 0 0 1028.8 1029.1 0.0
30/12:30am 1.8 0.1 1.7 99 0.0 CALM 0 0 0 0 1028.7 1029.0 0.0
30/12:00am 1.8 0.1 1.7 99 0.0 CALM 0 0 0 0 1028.9 1029.2 0.0
 
Date/Time
EST
Temp
°C
App
Temp
°C
Dew
Point
Rel
Hum
%
Delta-T
°C
Wind Press
QNH
hPa
Press
MSL
hPa
Rain
since 9 am
mm
Dir
 
Spd
km/h
Gust
km/h
Spd
kts
Gust
kts
29/11:30pm 2.0 -0.8 1.9 99 0.0 N 6 9 3 5 1029.2 1029.5 0.0
29/11:00pm 1.5 -2.0 1.4 99 0.0 NE 9 11 5 6 1029.1 1029.4 0.0
29/10:30pm 1.9 -0.2 1.8 99 0.0 NNE 2 7 1 4 1029.3 1029.6 0.0
29/10:00pm 2.6 -0.7 2.5 99 0.0 NNE 9 9 5 5 1029.4 1029.7 0.0
29/09:30pm 3.2 0.4 3.1 99 0.0 NNE 7 9 4 5 1029.7 1030.0 0.0
29/09:00pm 4.1 2.8 4.0 99 0.0 CALM 0 0 0 0 1029.9 1030.2 0.0
29/08:30pm 4.0 2.2 3.6 97 0.2 NW 2 6 1 3 1030.1 1030.4 0.0
29/08:00pm 4.0 1.4 3.4 96 0.2 NW 6 7 3 4 1030.1 1030.4 0.0
29/07:30pm 4.2 2.3 2.9 91 0.5 NW 2 9 1 5 1029.9 1030.2 0.0
29/07:00pm 5.7 4.4 4.0 89 0.7 CALM 0 0 0 0 1029.8 1030.1 0.0
29/06:30pm 7.5 5.8 6.1 91 0.6 WSW 4 7 2 4 1029.6 1029.9 0.0
29/06:00pm 8.5 6.0 6.5 87 0.9 WSW 9 13 5 7 1029.6 1029.9 0.0
29/05:30pm 9.6 7.6 7.0 84 1.2 WSW 7 7 4 4 1029.4 1029.7 0.0
29/05:00pm 11.5 8.9 7.8 78 1.8 WSW 11 15 6 8 1029.2 1029.5 0.0
29/04:30pm 13.5 11.1 8.8 73 2.4 WSW 11 13 6 7 1029.2 1029.5 0.0
29/04:00pm 14.5 11.7 8.7 68 2.9 W 13 19 7 10 1029.0 1029.3 0.0
29/03:30pm 15.0 11.4 8.3 64 3.4 WNW 17 20 9 11 1028.9 1029.2 0.0
29/03:00pm 15.5 12.7 8.5 63 3.6 W 13 17 7 9 1028.8 1029.1 0.0
29/02:30pm 16.0 13.6 8.5 61 3.9 WNW 11 17 6 9 1028.6 1028.9 0.0
29/02:00pm 15.7 12.9 8.7 63 3.6 W 13 20 7 11 1028.7 1029.0 0.0
29/01:30pm 15.6 12.8 8.6 63 3.6 W 13 17 7 9 1028.8 1029.1 0.0
29/01:00pm 15.5 13.3 7.8 60 3.9 N 9 17 5 9 1029.2 1029.5 0.0
29/12:30pm 14.5 12.7 7.3 62 3.6 NE 6 9 3 5 1029.6 1029.9 0.0
29/12:00pm 14.4 13.1 7.7 64 3.3 N 4 9 2 5 1030.3 1030.7 0.0
29/11:30am 12.7 10.9 7.0 68 2.8 N 6 11 3 6 1030.8 1031.2 0.0
29/11:00am 11.0 10.0 7.5 79 1.7 ESE 2 9 1 5 1031.3 1031.7 0.0
29/10:30am 9.0 7.9 6.8 86 1.0 ESE 2 7 1 4 1031.7 1032.0 0.0
29/10:00am 7.7 4.9 7.0 95 0.3 E 11 13 6 7 1032.2 1032.5 0.0
29/09:30am 5.6 3.3 5.5 99 0.0 ESE 7 11 4 6 1032.2 1032.5 0.0
29/09:00am 2.8 0.9 2.7 99 0.0 ESE 2 7 1 4 1032.1 1032.4 0.2
29/08:30am 0.5 -1.4 0.4 99 0.0 CALM 0 0 0 0 1032.4 1032.7 0.2
29/08:00am -0.9 -3.0 -1.0 99 0.0 CALM 0 0 0 0 1032.4 1032.7 0.2
29/07:30am -1.5 -3.7 -1.6 99 0.0 CALM 0 0 0 0 1032.4 1032.7 0.0
29/07:00am -1.4 -3.6 -1.5 99 0.0 CALM 0 0 0 0 1032.1 1032.4 0.0
29/06:30am -1.0 -3.1 -1.1 99 0.0 CALM 0 0 0 0 1031.9 1032.2 0.0
29/06:00am -0.9 -3.0 -1.0 99 0.0 CALM 0 0 0 0 1031.7 1032.0 0.0
29/05:30am -0.7 -2.8 -0.8 99 0.0 CALM 0 0 0 0 1031.7 1032.0 0.0
29/05:00am -0.8 -2.9 -0.9 99 0.0 CALM 0 0 0 0 1031.7 1032.0 0.0
29/04:30am -0.8 -2.9 -0.9 99 0.0 CALM 0 0 0 0 1031.8 1032.1 0.0
29/04:00am -1.1 -3.3 -1.2 99 0.0 CALM 0 0 0 0 1031.9 1032.2 0.0
29/03:30am -0.8 -2.9 -0.9 99 0.0 CALM 0 0 0 0 1032.0 1032.3 0.0
29/03:00am -1.0 -3.1 -1.1 99 0.0 CALM 0 0 0 0 1032.2 1032.5 0.0
29/02:30am -1.6 -3.8 -1.7 99 0.0 CALM 0 0 0 0 1032.1 1032.4 0.0
29/02:00am -1.6 -3.8 -1.7 99 0.0 CALM 0 0 0 0 1032.1 1032.4 0.0
29/01:30am -1.6 -3.8 -1.7 99 0.0 CALM 0 0 0 0 1032.1 1032.4 0.0
29/01:00am -1.3 -3.5 -1.4 99 0.0 CALM 0 0 0 0 1032.0 1032.3 0.0
29/12:30am -1.4 -3.6 -1.5 99 0.0 CALM 0 0 0 0 1032.2 1032.5 0.0
29/12:00am -0.9 -3.0 -1.0 99 0.0 CALM 0 0 0 0 1032.5 1032.8 0.0
 
Date/Time
EST
Temp
°C
App
Temp
°C
Dew
Point
Rel
Hum
%
Delta-T
°C
Wind Press
QNH
hPa
Press
MSL
hPa
Rain
since 9 am
mm
Dir
 
Spd
km/h
Gust
km/h
Spd
kts
Gust
kts
28/11:30pm -0.3 -2.3 -0.4 99 0.0 CALM 0 0 0 0 1032.5 1032.8 0.0
28/11:00pm -0.2 -3.4 -0.3 99 0.0 N 6 7 3 4 1032.6 1032.9 0.0
28/10:30pm -0.8 -4.2 -0.9 99 0.0 NNW 7 7 4 4 1032.7 1033.0 0.0
28/10:00pm 0.1 -1.9 0.0 99 0.0 CALM 0 0 0 0 1032.7 1033.0 0.0
28/09:30pm 0.6 -1.3 0.5 99 0.0 CALM 0 0 0 0 1032.9 1033.2 0.0
28/09:00pm 1.2 -0.6 1.1 99 0.0 CALM 0 0 0 0 1032.6 1032.9 0.0
28/08:30pm 1.5 -0.3 1.2 98 0.1 CALM 0 0 0 0 1032.7 1033.0 0.0
28/08:00pm 1.9 0.1 1.5 97 0.2 CALM 0 0 0 0 1032.5 1032.8 0.0
28/07:30pm 2.6 1.0 2.2 97 0.2 CALM 0 0 0 0 1032.5 1032.8 0.0
28/07:00pm 2.8 0.0 2.1 95 0.3 WSW 6 6 3 3 1032.3 1032.6 0.0
28/06:30pm 3.8 1.1 2.9 94 0.4 WSW 6 7 3 4 1032.1 1032.4 0.0
28/06:00pm 4.3 1.4 2.7 89 0.6 WSW 7 7 4 4 1031.8 1032.1 0.0
28/05:30pm 6.3 3.8 4.0 85 1.0 SW 6 7 3 4 1031.7 1032.0 0.0
28/05:00pm 7.3 4.6 3.9 79 1.5 SSW 7 9 4 5 1031.7 1032.0 0.0
28/04:30pm 8.5 5.3 4.9 78 1.6 SW 11 13 6 7 1031.8 1032.1 0.0
28/04:00pm 8.9 5.6 4.5 74 2.0 SW 11 15 6 8 1031.9 1032.2 0.0
28/03:30pm 9.2 5.9 4.8 74 2.0 SW 11 15 6 8 1031.9 1032.2 0.0
28/03:00pm 9.7 7.5 5.5 75 1.9 SSW 6 9 3 5 1031.9 1032.2 0.0
28/02:30pm 10.2 8.1 6.0 75 2.0 WNW 6 11 3 6 1032.0 1032.3 0.0
28/02:00pm 8.1 6.9 4.7 79 1.5 CALM 0 0 0 0 1032.2 1032.5 0.0
28/01:30pm 8.4 6.6 5.3 81 1.4 S 4 13 2 7 1032.4 1032.7 0.0
28/01:00pm 8.1 5.7 5.2 82 1.3 SE 7 13 4 7 1032.6 1032.9 0.0
28/12:30pm 7.9 5.7 5.4 84 1.1 SSE 6 9 3 5 1033.1 1033.4 0.0
28/12:00pm 7.3 5.2 5.6 89 0.8 SSE 6 13 3 7 1033.5 1033.8 0.0
28/11:30am 6.8 5.0 5.6 92 0.5 S 4 11 2 6 1033.8 1034.1 0.0
28/11:00am 6.5 4.3 6.2 98 0.1 ESE 7 13 4 7 1034.1 1034.5 0.0
28/10:30am 5.9 3.8 5.8 99 0.0 SE 6 13 3 7 1034.3 1034.7 0.0
28/10:00am 5.6 3.8 5.5 99 0.0 ESE 4 9 2 5 1034.2 1034.6 0.0
28/09:30am 5.4 4.3 5.3 99 0.0 CALM 0 0 0 0 1034.1 1034.5 0.0
28/09:00am 5.0 3.9 4.9 99 0.0 CALM 0 0 0 0 1033.9 1034.3 0.2
28/08:30am 4.7 3.5 4.6 99 0.0 CALM 0 0 0 0 1033.7 1034.0 0.2
28/08:00am 4.3 3.0 4.2 99 0.0 CALM 0 0 0 0 1033.6 1033.9 0.2
28/07:30am 4.1 2.8 4.0 99 0.0 CALM 0 0 0 0 1033.3 1033.6 0.2
28/07:00am 3.9 2.5 3.8 99 0.0 CALM 0 0 0 0 1033.0 1033.3 0.2
28/06:30am 3.8 2.4 3.7 99 0.0 CALM 0 0 0 0 1032.9 1033.2 0.2
28/06:00am 3.7 2.3 3.6 99 0.0 CALM 0 0 0 0 1032.6 1032.9 0.2
28/05:30am 3.5 2.1 3.4 99 0.0 CALM 0 0 0 0 1032.5 1032.8 0.2
28/05:00am 3.2 1.7 3.1 99 0.0 CALM 0 0 0 0 1032.2 1032.5 0.2
28/04:30am 3.1 0.8 3.0 99 0.0 SE 4 7 2 4 1032.1 1032.4 0.2
28/04:00am 2.7 0.4 2.6 99 0.0 SSE 4 9 2 5 1032.2 1032.5 0.2
28/03:30am 2.9 1.0 2.8 99 0.0 SSE 2 7 1 4 1032.2 1032.5 0.2
28/03:00am 3.1 1.6 3.0 99 0.0 CALM 0 0 0 0 1032.2 1032.5 0.2
28/02:30am 3.1 1.2 3.0 99 0.0 E 2 6 1 3 1032.1 1032.4 0.2
28/02:00am 3.0 1.5 2.9 99 0.0 CALM 0 0 0 0 1032.2 1032.5 0.2
28/01:30am 3.2 1.7 3.1 99 0.0 CALM 0 0 0 0 1032.1 1032.4 0.2
28/01:00am 3.3 1.8 3.2 99 0.0 CALM 0 0 0 0 1032.2 1032.5 0.2
28/12:30am 3.5 2.1 3.4 99 0.0 CALM 0 0 0 0 1032.5 1032.8 0.2
28/12:00am 3.6 2.2 3.5 99 0.0 CALM 0 0 0 0 1032.6 1032.9 0.2
 
Date/Time
EST
Temp
°C
App
Temp
°C
Dew
Point
Rel
Hum
%
Delta-T
°C
Wind Press
QNH
hPa
Press
MSL
hPa
Rain
since 9 am
mm
Dir
 
Spd
km/h
Gust
km/h
Spd
kts
Gust
kts
27/11:30pm 3.4 2.0 3.3 99 0.0 CALM 0 0 0 0 1032.8 1033.1 0.2
27/11:00pm 3.7 2.3 3.6 99 0.0 CALM 0 0 0 0 1032.5 1032.8 0.2
27/10:30pm 4.0 2.7 3.9 99 0.0 CALM 0 0 0 0 1032.7 1033.0 0.2
27/10:00pm 4.5 3.3 4.4 99 0.0 CALM 0 0 0 0 1032.9 1033.2 0.2
27/09:30pm 5.2 4.1 5.1 99 0.0 CALM 0 0 0 0 1032.9 1033.2 0.2
27/09:00pm 5.9 4.9 5.8 99 0.0 CALM 0 0 0 0 1032.8 1033.1 0.2
27/08:30pm 6.3 5.0 6.2 99 0.0 S 2 9 1 5 1032.8 1033.1 0.0
27/08:00pm 6.2 3.6 6.1 99 0.0 SSE 9 15 5 8 1032.7 1033.0 0.0
27/07:30pm 6.4 3.5 6.3 99 0.0 S 11 15 6 8 1032.5 1032.8 0.0
27/07:00pm 7.0 3.8 6.9 99 0.0 S 13 15 7 8 1032.5 1032.8 0.0
27/06:30pm 7.6 4.5 7.2 97 0.2 S 13 17 7 9 1032.2 1032.5 0.0

Other Formats:

Comma delimited format used in spreadsheet applications
http://www.bom.gov.au/fwo/IDN60801/IDN60801.94715.axf

JavaScript Object Notation format (JSON) in row-major order
http://www.bom.gov.au/fwo/IDN60801/IDN60801.94715.json